Time;durP1;ratioP1;P1;durP2;ratioP2;P2;SDS_P1;SDS_P2;PMS_P1;PMS_P2;Temp;Humidity;BMP_temperature;BMP_pressure;BME280_temperature;BME280_humidity;BME280_pressure;Samples;Min_cycle;Max_cycle;Signal;HPM_P1;HPM_P2
2022/05/31 00:01:17;;;;;;;;;;;;;;;20.78;46.44;100997.16;7295845;19;153345;-55
2022/05/31 00:03:44;;;;;;;;;;;;;;;20.82;46.55;100988.94;7288567;19;151962;-56
2022/05/31 00:06:10;;;;;;;;;;;;;;;20.83;46.45;100999.88;7288416;19;152566;-55
2022/05/31 00:08:44;;;;;;;;;;;;;;;20.75;47.02;101002.56;7288202;19;154120;-56
2022/05/31 00:11:11;;;;;;;;;;;;;;;20.69;47.10;101001.81;7287535;19;151828;-56
2022/05/31 00:13:40;;;;;;;;;;;;;;;20.64;47.61;101006.69;7289545;19;152838;-56
2022/05/31 00:16:07;;;;;;;;;;;;;;;20.63;47.63;100996.56;7287256;19;153849;-55
2022/05/31 00:18:37;;;;;;;;;;;;;;;20.59;47.67;100998.34;7289074;19;152017;-56
2022/05/31 00:21:07;;;;;;;;;;;;;;;20.56;47.57;100994.19;7292164;19;153541;-55
2022/05/31 00:23:35;;;;;;;;;;;;;;;20.63;47.60;100991.81;7288630;19;152098;-56
2022/05/31 00:26:01;;;;;;;;;;;;;;;20.54;48.06;100985.22;7288031;19;152524;-55
2022/05/31 00:28:32;;;;;;;;;;;;;;;20.54;48.14;100976.81;7288539;19;153342;-55
2022/05/31 00:30:59;;;;;;;;;;;;;;;20.52;48.12;100970.69;7288068;19;152211;-55
2022/05/31 00:33:26;;;;;;;;;;;;;;;20.52;48.42;100970.69;7286660;19;152796;-55
2022/05/31 00:35:53;;;;;;;;;;;;;;;20.50;48.16;100980.53;7285875;19;153252;-55
2022/05/31 00:38:30;;;;;;;;;;;;;;;20.48;48.28;100983.66;7288099;19;151876;-56
2022/05/31 00:41:26;;;;;;;;;;;;;;;20.48;48.58;100988.44;7287021;19;152889;-55
2022/05/31 00:43:57;;;;;;;;;;;;;;;20.47;48.33;100983.97;7294632;19;154183;-56
2022/05/31 00:46:26;;;;;;;;;;;;;;;20.48;48.34;100975.25;7288062;19;153500;-56
2022/05/31 00:48:56;;;;;;;;;;;;;;;20.46;48.79;100973.88;7284853;19;154187;-56
2022/05/31 00:51:26;;;;;;;;;;;;;;;20.45;48.75;100969.41;7287544;19;152110;-56
2022/05/31 00:53:56;;;;;;;;;;;;;;;20.44;48.67;100965.78;7288313;19;152647;-55
2022/05/31 00:56:24;;;;;;;;;;;;;;;20.43;48.56;100964.09;7285801;19;154149;-55
2022/05/31 00:58:56;;;;;;;;;;;;;;;20.43;48.62;100969.72;7286971;19;151888;-56
2022/05/31 01:01:24;;;;;;;;;;;;;;;20.42;48.80;100962.44;7285397;19;153382;-54
2022/05/31 01:03:51;;;;;;;;;;;;;;;20.42;48.75;100962.44;7284380;19;153638;-56
2022/05/31 01:06:18;;;;;;;;;;;;;;;20.41;49.26;100961.59;7294002;19;152382;-55
2022/05/31 01:08:46;;;;;;;;;;;;;;;20.41;49.00;100970.03;7286301;19;153288;-55
2022/05/31 01:11:15;;;;;;;;;;;;;;;20.40;49.20;100968.34;7288028;19;152379;-55
2022/05/31 01:13:42;;;;;;;;;;;;;;;20.40;49.32;100953.47;7285863;19;153194;-56
2022/05/31 01:16:10;;;;;;;;;;;;;;;20.40;49.14;100950.66;7284775;19;153053;-55
2022/05/31 01:18:37;;;;;;;;;;;;;;;20.39;49.38;100957.44;7287905;19;152352;-55
2022/05/31 01:21:05;;;;;;;;;;;;;;;20.39;49.21;100957.44;7288189;19;152696;-55
2022/05/31 01:23:50;;;;;;;;;;;;;;;20.39;49.24;100957.44;7285855;19;154011;-55
2022/05/31 01:26:23;;;;;;;;;;;;;;;20.36;49.30;100961.69;7286325;19;151948;-55
2022/05/31 01:29:10;;;;;;;;;;;;;;;20.37;49.46;100965.31;7292127;19;153369;-56
2022/05/31 01:31:53;;;;;;;;;;;;;;;20.36;49.45;100967.28;7285956;19;152701;-55
2022/05/31 01:34:23;;;;;;;;;;;;;;;20.36;49.77;100963.66;7285846;19;153024;-55
2022/05/31 01:36:52;;;;;;;;;;;;;;;20.37;49.90;100968.13;7283098;19;154186;-56
2022/05/31 01:39:41;;;;;;;;;;;;;;;20.36;49.62;100963.66;7285698;19;152382;-55
2022/05/31 01:42:20;;;;;;;;;;;;;;;20.35;49.88;100962.81;7283568;19;153048;-55
2022/05/31 01:44:49;;;;;;;;;;;;;;;20.35;49.98;100974.03;7283709;19;153272;-56
2022/05/31 01:47:16;;;;;;;;;;;;;;;20.34;50.04;100971.56;7285899;19;152551;-55
2022/05/31 01:49:46;;;;;;;;;;;;;;;20.35;50.23;100973.25;7287010;19;152716;-56
2022/05/31 01:52:13;;;;;;;;;;;;;;;20.33;50.14;100965.13;7292549;19;153284;-55
2022/05/31 01:54:41;;;;;;;;;;;;;;;20.32;50.15;100966.25;7285041;19;152705;-56
2022/05/31 01:57:10;;;;;;;;;;;;;;;20.34;50.00;100965.94;7281775;19;153989;-56
2022/05/31 01:59:39;;;;;;;;;;;;;;;20.35;50.42;100973.25;7285558;19;151557;-56
2022/05/31 02:02:07;;;;;;;;;;;;;;;20.32;50.57;100969.06;7283823;19;153566;-55
2022/05/31 02:04:34;;;;;;;;;;;;;;;20.32;50.50;100973.81;7282164;19;154292;-56
2022/05/31 02:07:10;;;;;;;;;;;;;;;20.31;50.65;100967.38;7286215;19;151920;-56
2022/05/31 02:09:37;;;;;;;;;;;;;;;20.28;50.76;100959.56;7285834;19;154623;-56
2022/05/31 02:12:05;;;;;;;;;;;;;;;20.29;50.47;100957.59;7283552;19;153346;-55
2022/05/31 02:14:31;;;;;;;;;;;;;;;20.29;50.62;100954.78;7293018;19;152024;-55
2022/05/31 02:16:58;;;;;;;;;;;;;;;20.28;50.67;100951.13;7282648;19;153321;-56
2022/05/31 02:19:26;;;;;;;;;;;;;;;20.28;50.58;100962.34;7284762;19;151612;-56
2022/05/31 02:21:58;;;;;;;;;;;;;;;20.27;50.88;100959.84;7282514;19;152557;-56
2022/05/31 02:24:25;;;;;;;;;;;;;;;20.25;50.74;100960.19;7284141;19;154120;-55
2022/05/31 02:26:52;;;;;;;;;;;;;;;20.25;50.68;100962.16;7285461;19;152145;-55
2022/05/31 02:29:22;;;;;;;;;;;;;;;20.24;50.86;100960.47;7284817;19;153448;-55
2022/05/31 02:31:49;;;;;;;;;;;;;;;20.23;50.95;100961.59;7284220;19;153018;-55
2022/05/31 02:34:18;;;;;;;;;;;;;;;20.23;50.76;100964.41;7292049;19;151784;-55
2022/05/31 02:36:44;;;;;;;;;;;;;;;20.23;50.96;100964.41;7281859;19;154348;-56
2022/05/31 02:39:11;;;;;;;;;;;;;;;20.22;50.78;100957.97;7284955;19;151646;-56
2022/05/31 02:41:38;;;;;;;;;;;;;;;20.23;50.87;100956.00;7283081;19;153481;-56
2022/05/31 02:44:05;;;;;;;;;;;;;;;20.23;51.00;100964.41;7282284;19;154087;-56
2022/05/31 02:46:32;;;;;;;;;;;;;;;20.23;50.72;100961.59;7285002;19;152411;-56
2022/05/31 02:49:00;;;;;;;;;;;;;;;20.21;51.09;100961.94;7285049;19;153110;-56
2022/05/31 02:51:27;;;;;;;;;;;;;;;20.23;51.07;100961.59;7280204;19;154498;-55
2022/05/31 02:53:53;;;;;;;;;;;;;;;20.22;51.27;100959.94;7285406;19;151861;-56
2022/05/31 02:56:20;;;;;;;;;;;;;;;20.21;51.19;100958.28;7289485;19;152796;-55
2022/05/31 02:58:47;;;;;;;;;;;;;;;20.20;51.28;100968.66;7285927;19;152695;-55
2022/05/31 03:01:25;;;;;;;;;;;;;;;20.19;51.00;100957.75;7283663;19;152615;-55
2022/05/31 03:03:52;;;;;;;;;;;;;;;20.21;51.10;100955.47;7279196;19;153992;-56
2022/05/31 03:06:20;;;;;;;;;;;;;;;20.20;51.16;100960.25;7282941;19;151923;-56
2022/05/31 03:08:47;;;;;;;;;;;;;;;20.19;51.12;100966.16;7284019;19;153647;-55
2022/05/31 03:11:26;;;;;;;;;;;;;;;20.19;51.21;100966.16;7283293;19;153729;-56
2022/05/31 03:13:57;;;;;;;;;;;;;;;20.16;51.43;100962.00;7282922;19;152402;-56
2022/05/31 03:16:25;;;;;;;;;;;;;;;20.15;51.53;100965.13;7281152;19;152716;-55
2022/05/31 03:18:58;;;;;;;;;;;;;;;20.15;51.39;100956.69;7290731;19;153465;-55
2022/05/31 03:21:28;;;;;;;;;;;;;;;20.15;51.25;100956.69;7283878;19;152755;-56
2022/05/31 03:23:57;;;;;;;;;;;;;;;20.14;51.47;100946.59;7282125;19;154160;-55
2022/05/31 03:26:26;;;;;;;;;;;;;;;20.13;51.13;100950.53;7283323;19;152256;-55
2022/05/31 03:28:53;;;;;;;;;;;;;;;20.13;51.15;100954.19;7282110;19;153473;-56
2022/05/31 03:31:20;;;;;;;;;;;;;;;20.12;51.46;100944.13;7280862;19;153715;-56
2022/05/31 03:33:46;;;;;;;;;;;;;;;20.12;51.59;100943.28;7282482;19;153601;-56
2022/05/31 03:36:14;;;;;;;;;;;;;;;20.11;51.47;100950.88;7283092;19;153396;-55
2022/05/31 03:38:41;;;;;;;;;;;;;;;20.10;51.36;100945.56;7282593;19;153268;-54
2022/05/31 03:41:07;;;;;;;;;;;;;;;20.11;51.13;100941.63;7288235;19;152107;-56
2022/05/31 03:43:35;;;;;;;;;;;;;;;20.10;51.37;100949.19;7281433;19;153262;-55
2022/05/31 03:46:02;;;;;;;;;;;;;;;20.08;51.37;100942.25;7283049;19;151753;-55
2022/05/31 03:48:29;;;;;;;;;;;;;;;20.08;51.46;100940.25;7283864;19;153309;-56
2022/05/31 03:51:03;;;;;;;;;;;;;;;20.08;51.60;100936.63;7280913;19;153223;-55
2022/05/31 03:53:29;;;;;;;;;;;;;;;20.07;51.22;100948.97;7280735;19;152172;-55
2022/05/31 03:55:56;;;;;;;;;;;;;;;20.06;51.39;100948.16;7282085;19;153705;-55
2022/05/31 03:58:23;;;;;;;;;;;;;;;20.06;51.51;100944.50;7277385;19;153945;-57
2022/05/31 04:00:50;;;;;;;;;;;;;;;20.06;51.64;100936.09;7280782;19;152061;-56
2022/05/31 04:03:17;;;;;;;;;;;;;;;20.05;51.47;100940.88;7286948;19;157084;-55
2022/05/31 04:05:43;;;;;;;;;;;;;;;20.04;51.69;100943.97;7279902;19;151719;-55
2022/05/31 04:08:12;;;;;;;;;;;;;;;20.04;51.43;100946.75;7282897;19;153639;-56
2022/05/31 04:10:40;;;;;;;;;;;;;;;20.02;51.30;100938.69;7286836;19;153252;-55
2022/05/31 04:13:06;;;;;;;;;;;;;;;20.02;51.51;100944.28;7287303;19;151852;-56
2022/05/31 04:15:33;;;;;;;;;;;;;;;20.02;51.66;100940.66;7289179;19;152895;-56
2022/05/31 04:18:00;;;;;;;;;;;;;;;20.01;51.29;100938.97;7285635;19;153367;-56
2022/05/31 04:20:27;;;;;;;;;;;;;;;20.01;51.42;100937.00;7289139;19;152062;-54
2022/05/31 04:23:58;;;;;;;;;;;;;;;19.99;51.50;100942.91;7288288;19;153411;-56
2022/05/31 04:25:43;;;;;;;;;;;;;;;20.01;51.48;100938.97;7293675;19;152145;-55
2022/05/31 04:28:10;;;;;;;;;;;;;;;20.00;51.72;100938.13;7288178;19;153484;-56
2022/05/31 04:30:37;;;;;;;;;;;;;;;19.97;51.54;100933.97;7286750;19;154118;-55
2022/05/31 04:33:04;;;;;;;;;;;;;;;19.97;51.79;100942.41;7287850;19;152250;-55
2022/05/31 04:35:31;;;;;;;;;;;;;;;19.97;51.84;100938.75;7286502;19;152693;-56
2022/05/31 04:37:57;;;;;;;;;;;;;;;19.95;51.79;100941.84;7284769;19;153810;-56
2022/05/31 04:40:24;;;;;;;;;;;;;;;19.94;51.84;100939.38;7287136;19;151717;-55
2022/05/31 04:42:52;;;;;;;;;;;;;;;19.95;51.72;100946.63;7288043;19;152867;-55
2022/05/31 04:45:19;;;;;;;;;;;;;;;19.94;52.06;100936.56;7295212;19;153512;-55
2022/05/31 04:47:46;;;;;;;;;;;;;;;19.93;51.89;100938.53;7287287;19;152583;-55
2022/05/31 04:50:12;;;;;;;;;;;;;;;19.92;51.92;100931.25;7287564;19;153178;-55
2022/05/31 04:52:49;;;;;;;;;;;;;;;19.91;51.87;100934.34;7287267;19;152534;-56
2022/05/31 04:55:18;;;;;;;;;;;;;;;19.92;52.05;100936.03;7287966;19;153004;-56
2022/05/31 04:57:45;;;;;;;;;;;;;;;19.90;52.29;100933.53;7285740;19;153843;-56
2022/05/31 05:00:13;;;;;;;;;;;;;;;19.90;52.00;100932.69;7287071;19;152233;-56
2022/05/31 05:02:47;;;;;;;;;;;;;;;19.90;51.70;100929.88;7285606;19;153004;-55
2022/05/31 05:05:14;;;;;;;;;;;;;;;19.90;51.79;100938.28;7286160;19;155815;-55
2022/05/31 05:07:40;;;;;;;;;;;;;;;19.89;52.21;100934.69;7294965;19;151931;-56
2022/05/31 05:10:08;;;;;;;;;;;;;;;19.89;51.97;100937.50;7284831;19;153329;-55
2022/05/31 05:12:37;;;;;;;;;;;;;;;19.89;52.30;100933.84;7285345;19;151923;-54
2022/05/31 05:15:17;;;;;;;;;;;;;;;19.89;52.08;100936.66;7285925;19;152761;-56
2022/05/31 05:17:43;;;;;;;;;;;;;;;19.87;52.47;100933.31;7284545;19;153374;-55
2022/05/31 05:20:10;;;;;;;;;;;;;;;19.88;52.04;100935.81;7288184;19;151920;-55
2022/05/31 05:22:46;;;;;;;;;;;;;;;19.91;51.78;100935.19;7287282;19;153134;-55
2022/05/31 05:25:13;;;;;;;;;;;;;;;19.97;51.90;100939.59;7284205;19;153958;-55
2022/05/31 05:27:39;;;;;;;;;;;;;;;20.01;52.20;100927.75;7285603;19;152429;-55
2022/05/31 05:32:53;;;;;;;;;;;;;;;20.11;52.24;100931.25;7285964;19;151703;-55
2022/05/31 05:35:20;;;;;;;;;;;;;;;20.15;52.09;100928.66;7283846;19;152722;-56
2022/05/31 05:37:47;;;;;;;;;;;;;;;20.23;52.38;100933.56;7282916;19;153934;-56
2022/05/31 05:40:13;;;;;;;;;;;;;;;20.30;52.58;100934.03;7284639;19;153077;-56
2022/05/31 05:42:46;;;;;;;;;;;;;;;20.38;52.69;100930.53;7286019;19;152754;-55
2022/05/31 05:45:13;;;;;;;;;;;;;;;20.45;52.61;100935.72;7283232;19;154313;-56
2022/05/31 05:47:39;;;;;;;;;;;;;;;20.54;52.70;100934.69;7284762;19;151918;-56
2022/05/31 05:50:07;;;;;;;;;;;;;;;20.63;52.31;100932.00;7287270;19;152628;-55
2022/05/31 05:52:50;;;;;;;;;;;;;;;20.69;52.60;100933.59;7289714;19;154234;-56
2022/05/31 05:55:17;;;;;;;;;;;;;;;20.77;52.56;100935.66;7286883;19;153344;-56
2022/05/31 05:57:43;;;;;;;;;;;;;;;20.83;52.29;100928.81;7283071;19;153919;-56
2022/05/31 06:00:10;;;;;;;;;;;;;;;20.91;52.04;100933.72;7286948;19;152103;-55
2022/05/31 06:02:46;;;;;;;;;;;;;;;20.99;51.75;100934.94;7280923;19;152677;-55
2022/05/31 06:05:20;;;;;;;;;;;;;;;21.06;51.32;100935.38;7285765;19;153404;-55
2022/05/31 06:07:49;;;;;;;;;;;;;;;21.12;51.70;100934.94;7285318;19;151584;-55
2022/05/31 06:10:28;;;;;;;;;;;;;;;21.19;51.58;100941.03;7287124;19;153459;-56
2022/05/31 06:13:07;;;;;;;;;;;;;;;21.27;51.44;100928.22;7284075;19;153630;-56
2022/05/31 06:15:38;;;;;;;;;;;;;;;21.35;51.18;100930.28;7291118;19;151986;-56
2022/05/31 06:18:10;;;;;;;;;;;;;;;21.41;50.83;100929.03;7282288;19;154115;-55
2022/05/31 06:20:36;;;;;;;;;;;;;;;21.48;51.22;100929.44;7284018;19;151878;-56
2022/05/31 06:23:03;;;;;;;;;;;;;;;21.54;50.76;100932.94;7286192;19;154074;-56
2022/05/31 06:25:30;;;;;;;;;;;;;;;21.60;50.69;100929.72;7282761;19;154678;-55
2022/05/31 06:27:56;;;;;;;;;;;;;;;21.67;50.54;100934.91;7284404;19;152632;-56
2022/05/31 06:30:23;;;;;;;;;;;;;;;21.72;50.06;100932.81;7284791;19;152636;-55
2022/05/31 06:32:50;;;;;;;;;;;;;;;21.78;50.24;100938.31;7284169;19;153373;-55
2022/05/31 06:35:16;;;;;;;;;;;;;;;21.84;49.90;100937.88;7291828;19;151903;-55
2022/05/31 06:37:43;;;;;;;;;;;;;;;21.89;49.95;100937.78;7283056;19;153896;-55
2022/05/31 06:40:10;;;;;;;;;;;;;;;21.95;49.87;100944.94;7284587;19;152419;-55
2022/05/31 06:42:47;;;;;;;;;;;;;;;21.99;49.73;100943.16;7283823;19;153310;-56
2022/05/31 06:45:21;;;;;;;;;;;;;;;22.03;49.44;100938.56;7282830;19;153968;-55
2022/05/31 06:47:48;;;;;;;;;;;;;;;22.06;48.82;100929.50;7282928;19;151715;-55
2022/05/31 06:50:14;;;;;;;;;;;;;;;22.10;48.80;100941.78;7285878;19;152617;-56
2022/05/31 06:58:19;;;;;;;;;;;;;;;22.17;48.20;100938.50;7288687;19;152712;-55
2022/05/31 07:00:46;;;;;;;;;;;;;;;22.18;48.70;100941.00;7283544;19;152232;-56
2022/05/31 07:03:13;;;;;;;;;;;;;;;22.19;48.60;100941.84;7281884;19;154086;-56
2022/05/31 07:05:40;;;;;;;;;;;;;;;22.20;48.36;100949.13;7279837;19;153995;-56
2022/05/31 07:08:09;;;;;;;;;;;;;;;22.21;48.21;100938.72;7282976;19;152283;-55
2022/05/31 07:10:36;;;;;;;;;;;;;;;22.23;48.12;100950.47;7283844;19;152995;-55
2022/05/31 07:13:02;;;;;;;;;;;;;;;22.23;48.46;100944.84;7282360;19;153946;-56
2022/05/31 07:15:31;;;;;;;;;;;;;;;22.23;48.48;100944.84;7283285;19;152068;-56
2022/05/31 07:18:18;;;;;;;;;;;;;;;22.24;47.93;100952.97;7281859;19;154674;-55
2022/05/31 07:20:45;;;;;;;;;;;;;;;22.23;48.28;100951.31;7289866;19;153153;-56
2022/05/31 07:23:12;;;;;;;;;;;;;;;22.24;48.29;100952.13;7283720;19;153831;-54
2022/05/31 07:25:39;;;;;;;;;;;;;;;22.21;48.16;100950.81;7282318;19;153256;-56
2022/05/31 07:28:07;;;;;;;;;;;;;;;22.21;48.38;100948.00;7281412;19;153381;-56
2022/05/31 07:30:34;;;;;;;;;;;;;;;22.21;48.22;100945.19;7282742;19;152331;-55
2022/05/31 07:33:01;;;;;;;;;;;;;;;22.19;48.10;100944.66;7281177;19;154121;-55
2022/05/31 07:35:49;;;;;;;;;;;;;;;22.23;48.43;100951.31;7282845;19;151581;-55
2022/05/31 07:38:23;;;;;;;;;;;;;;;22.20;47.73;100946.31;7281880;19;152639;-56
2022/05/31 07:40:50;;;;;;;;;;;;;;;22.17;47.65;100942.16;7282418;19;153390;-55
2022/05/31 07:43:17;;;;;;;;;;;;;;;22.17;47.64;100961.84;7293497;19;152654;-55
2022/05/31 07:45:44;;;;;;;;;;;;;;;22.17;47.67;100950.59;7288213;19;154284;-56
2022/05/31 07:48:11;;;;;;;;;;;;;;;22.16;47.66;100954.56;7289666;19;152076;-55
2022/05/31 07:50:38;;;;;;;;;;;;;;;22.14;48.14;100954.06;7288977;19;153420;-55
2022/05/31 07:53:05;;;;;;;;;;;;;;;22.14;47.80;100954.06;7290078;19;153755;-55
2022/05/31 07:55:32;;;;;;;;;;;;;;;22.16;47.38;100953.75;7290413;19;152109;-56
2022/05/31 08:00:43;;;;;;;;;;;;;;;22.12;47.02;100955.53;7288283;19;153217;-56
2022/05/31 08:03:10;;;;;;;;;;;;;;;22.15;46.72;100952.06;7285115;19;151864;-56
2022/05/31 08:05:38;;;;;;;;;;;;;;;22.11;46.80;100951.06;7295986;19;152809;-56
2022/05/31 08:08:05;;;;;;;;;;;;;;;22.07;47.08;100952.84;7289884;19;151942;-55
2022/05/31 08:10:52;;;;;;;;;;;;;;;22.04;46.93;100953.47;7289735;19;155796;-55
2022/05/31 08:13:19;;;;;;;;;;;;;;;22.03;47.14;100947.00;7285778;19;151956;-56
2022/05/31 08:15:45;;;;;;;;;;;;;;;22.01;46.83;100952.13;7288456;19;151790;-55
2022/05/31 08:18:12;;;;;;;;;;;;;;;22.02;46.68;100958.59;7288801;19;152815;-56
2022/05/31 08:20:39;;;;;;;;;;;;;;;22.04;46.74;100956.28;7288163;19;154268;-55
2022/05/31 08:23:06;;;;;;;;;;;;;;;22.02;46.67;100961.41;7286325;19;151662;-55
2022/05/31 08:25:36;;;;;;;;;;;;;;;21.96;46.66;100957.88;7289063;19;153709;-55
2022/05/31 08:28:02;;;;;;;;;;;;;;;21.92;46.91;100961.59;7292934;19;153847;-54
2022/05/31 08:30:30;;;;;;;;;;;;;;;21.87;47.18;100951.31;7289404;19;152665;-54
2022/05/31 08:32:57;;;;;;;;;;;;;;;21.88;47.05;100957.78;7287430;19;154179;-55
2022/05/31 08:35:23;;;;;;;;;;;;;;;21.85;46.56;100953.59;7288728;19;152015;-56
2022/05/31 08:38:10;;;;;;;;;;;;;;;21.87;46.80;100956.09;7287500;19;154852;-55
2022/05/31 08:40:47;;;;;;;;;;;;;;;21.81;46.78;100954.53;7284580;19;155618;-56
2022/05/31 08:43:17;;;;;;;;;;;;;;;21.77;46.84;100951.53;7288162;19;151884;-56
2022/05/31 08:45:52;;;;;;;;;;;;;;;21.75;46.74;100956.66;7286324;19;153520;-55
2022/05/31 08:48:28;;;;;;;;;;;;;;;21.72;47.25;100962.91;7294659;19;153533;-55
2022/05/31 08:56:56;;;;;;;;;;;;;;;21.69;46.05;100955.94;7284307;19;153985;-55
2022/05/31 08:59:23;;;;;;;;;;;;;;;21.63;46.00;100957.19;7286660;19;153201;-55
2022/05/31 09:01:52;;;;;;;;;;;;;;;21.62;45.36;100955.53;7285804;19;153287;-56
2022/05/31 09:04:25;;;;;;;;;;;;;;;21.60;46.05;100951.38;7286102;19;153933;-56
2022/05/31 09:06:54;;;;;;;;;;;;;;;21.67;45.50;100951.78;7287526;19;154291;-54
2022/05/31 09:09:27;;;;;;;;;;;;;;;21.62;45.75;100958.34;7287730;19;153304;-55
2022/05/31 09:12:03;;;;;;;;;;;;;;;21.66;45.58;100948.16;7295215;19;151917;-55
2022/05/31 09:14:45;;;;;;;;;;;;;;;21.60;45.80;100960.66;7285783;19;153975;-55
2022/05/31 09:17:19;;;;;;;;;;;;;;;21.54;45.98;100961.06;7286099;19;152241;-55
2022/05/31 09:20:00;;;;;;;;;;;;;;;21.50;46.13;100955.25;7283311;19;152637;-56
2022/05/31 09:22:27;;;;;;;;;;;;;;;21.48;46.54;100956.72;7287247;19;153988;-56
2022/05/31 09:24:53;;;;;;;;;;;;;;;21.50;45.97;100952.44;7287829;19;151839;-54
2022/05/31 09:27:24;;;;;;;;;;;;;;;21.34;43.69;100951.13;7281650;19;153500;-54
2022/05/31 09:29:52;;;;;;;;;;;;;;;21.46;44.96;100947.75;7283433;19;153957;-54
2022/05/31 09:32:35;;;;;;;;;;;;;;;21.44;44.53;100939.63;7286407;19;151955;-54
2022/05/31 09:35:32;;;;;;;;;;;;;;;21.46;44.70;100942.13;7295138;19;153208;-54
2022/05/31 09:37:58;;;;;;;;;;;;;;;21.32;44.87;100936.53;7287798;19;152797;-55
2022/05/31 09:40:31;;;;;;;;;;;;;;;21.31;45.10;100934.88;7284438;19;153043;-55
2022/05/31 09:43:00;;;;;;;;;;;;;;;21.31;44.98;100932.06;7285857;19;154243;-55
2022/05/31 09:45:29;;;;;;;;;;;;;;;21.26;44.83;100927.38;7287081;19;152061;-54
2022/05/31 09:47:59;;;;;;;;;;;;;;;21.18;44.88;100925.31;7285190;19;152638;-54
2022/05/31 09:50:27;;;;;;;;;;;;;;;21.21;45.10;100930.28;7284240;19;153187;-54
2022/05/31 09:52:56;;;;;;;;;;;;;;;21.22;44.90;100931.13;7284294;19;151803;-54
2022/05/31 09:58:18;;;;;;;;;;;;;;;21.23;44.96;100919.59;7292084;19;154370;-54
2022/05/31 10:01:09;;;;;;;;;;;;;;;21.26;44.90;100926.53;7285248;19;153417;-54
2022/05/31 10:03:41;;;;;;;;;;;;;;;21.23;45.24;100921.56;7235361;19;156149;-54
2022/05/31 10:06:16;;;;;;;;;;;;;;;21.21;45.16;100921.06;7275749;19;151771;-54
2022/05/31 10:08:44;;;;;;;;;;;;;;;21.19;45.15;100917.72;7269431;19;154800;-55
2022/05/31 10:11:12;;;;;;;;;;;;;;;21.20;45.02;100923.03;7277773;19;154395;-54
2022/05/31 10:13:41;;;;;;;;;;;;;;;21.21;45.01;100915.44;7277421;19;153477;-54
2022/05/31 10:16:18;;;;;;;;;;;;;;;21.25;44.92;100927.72;7280634;19;152591;-54
2022/05/31 10:18:52;;;;;;;;;;;;;;;21.23;44.79;100922.41;7276274;19;153375;-54
2022/05/31 10:21:34;;;;;;;;;;;;;;;21.24;44.69;100917.59;7283074;19;151932;-54
2022/05/31 10:24:17;;;;;;;;;;;;;;;21.26;44.45;100924.56;7277067;19;154081;-54
2022/05/31 10:26:45;;;;;;;;;;;;;;;21.30;44.77;100913.56;7275264;19;152730;-54
2022/05/31 10:29:18;;;;;;;;;;;;;;;21.28;44.83;100910.22;7275553;19;152980;-55
2022/05/31 10:31:46;;;;;;;;;;;;;;;21.33;44.51;100909.28;7275849;19;154372;-55
2022/05/31 10:34:32;;;;;;;;;;;;;;;21.42;44.24;100905.41;7278725;19;151837;-54
2022/05/31 10:37:00;;;;;;;;;;;;;;;21.40;44.47;100904.88;7279893;19;152585;-54
2022/05/31 10:39:29;;;;;;;;;;;;;;;21.41;44.26;100902.91;7278520;19;154311;-54
2022/05/31 10:41:58;;;;;;;;;;;;;;;21.35;44.05;100902.16;7281380;19;151947;-54
2022/05/31 10:44:42;;;;;;;;;;;;;;;21.32;44.12;100904.78;7287493;19;152775;-54
2022/05/31 10:47:10;;;;;;;;;;;;;;;21.29;45.38;100903.44;7281690;19;152204;-61
2022/05/31 10:49:38;;;;;;;;;;;;;;;21.38;45.23;100907.19;7280915;19;152628;-56
2022/05/31 10:52:08;;;;;;;;;;;;;;;21.38;45.74;100921.25;7280395;19;153569;-56
2022/05/31 10:54:47;;;;;;;;;;;;;;;21.31;46.44;100926.44;7278313;19;151795;-57
2022/05/31 10:57:22;;;;;;;;;;;;;;;21.22;46.14;100917.06;7281695;19;152977;-56
2022/05/31 11:00:03;;;;;;;;;;;;;;;21.18;46.88;100928.13;7276696;19;154536;-56
2022/05/31 11:02:54;;;;;;;;;;;;;;;21.12;46.91;100932.13;7278836;19;152321;-57
2022/05/31 11:05:43;;;;;;;;;;;;;;;21.08;46.82;100939.53;7285166;19;153179;-57
2022/05/31 11:11:29;;;;;;;;;;;;;;;20.99;46.56;100960.22;7280258;19;152930;-56
2022/05/31 11:13:55;;;;;;;;;;;;;;;20.95;46.99;100960.03;7278581;19;154343;-56
2022/05/31 11:16:22;;;;;;;;;;;;;;;20.97;46.67;100948.50;7279850;19;152162;-56
2022/05/31 11:18:52;;;;;;;;;;;;;;;20.92;46.95;100949.44;7285311;19;153753;-57
2022/05/31 11:21:21;;;;;;;;;;;;;;;20.88;46.89;100951.19;7284011;19;153296;-57
2022/05/31 11:23:49;;;;;;;;;;;;;;;20.88;46.76;100955.97;7286954;19;152130;-57
2022/05/31 11:26:25;;;;;;;;;;;;;;;20.85;47.12;100949.81;7286362;19;151888;-56
2022/05/31 11:29:30;;;;;;;;;;;;;;;20.86;46.84;100954.31;7291772;19;156430;-58
2022/05/31 11:31:59;;;;;;;;;;;;;;;20.87;46.58;100957.94;7285371;19;152757;-56
2022/05/31 11:34:26;;;;;;;;;;;;;;;20.87;46.76;100963.56;7286427;19;154116;-55
2022/05/31 11:37:05;;;;;;;;;;;;;;;20.83;46.93;100966.16;7284465;19;151692;-55
2022/05/31 11:39:43;;;;;;;;;;;;;;;20.89;46.83;100964.09;7285282;19;153464;-55
2022/05/31 11:42:21;;;;;;;;;;;;;;;20.83;46.57;100957.75;7283333;19;155119;-55
2022/05/31 11:45:06;;;;;;;;;;;;;;;20.82;46.57;100956.06;7286523;19;152397;-56
2022/05/31 11:47:39;;;;;;;;;;;;;;;20.79;46.82;100962.31;7283544;19;152612;-57
2022/05/31 11:50:05;;;;;;;;;;;;;;;20.76;47.01;100967.69;7284606;19;153685;-57
2022/05/31 11:52:32;;;;;;;;;;;;;;;20.78;46.71;100957.84;7295113;19;152426;-55
2022/05/31 11:57:55;;;;;;;;;;;;;;;20.77;46.65;100953.34;7286205;19;151767;-57
2022/05/31 12:00:22;;;;;;;;;;;;;;;20.78;46.87;100949.41;7285904;19;153239;-56
2022/05/31 12:03:00;;;;;;;;;;;;;;;20.79;46.98;100950.25;7282822;19;154053;-57
2022/05/31 12:05:31;;;;;;;;;;;;;;;20.77;47.18;100944.09;7284462;19;152680;-57
2022/05/31 12:08:02;;;;;;;;;;;;;;;20.76;47.01;100948.03;7285511;19;154033;-56
2022/05/31 12:10:32;;;;;;;;;;;;;;;20.74;47.05;100944.72;7281126;19;153529;-57
2022/05/31 12:13:04;;;;;;;;;;;;;;;20.70;46.97;100952.94;7284589;19;152471;-57
2022/05/31 12:15:33;;;;;;;;;;;;;;;20.67;47.15;100949.94;7291280;19;154498;-57
2022/05/31 12:18:19;;;;;;;;;;;;;;;20.66;47.00;100965.09;7285278;19;152182;-56
2022/05/31 12:20:49;;;;;;;;;;;;;;;20.63;47.22;100977.75;7282151;19;155341;-55
2022/05/31 12:23:25;;;;;;;;;;;;;;;20.60;46.98;100991.59;7283530;19;153210;-56
2022/05/31 12:25:54;;;;;;;;;;;;;;;20.60;47.28;100991.59;7284135;19;151984;-55
2022/05/31 12:28:38;;;;;;;;;;;;;;;20.62;47.47;100998.59;7282340;19;152648;-56
2022/05/31 12:31:20;;;;;;;;;;;;;;;20.54;47.20;100982.41;7280490;19;153808;-55
2022/05/31 12:33:47;;;;;;;;;;;;;;;20.50;47.04;100991.75;7284482;19;151582;-57
2022/05/31 12:36:14;;;;;;;;;;;;;;;20.47;47.41;100982.00;7284972;19;152366;-57
2022/05/31 12:38:53;;;;;;;;;;;;;;;20.47;47.63;100987.59;7291022;19;153120;-57
2022/05/31 12:41:31;;;;;;;;;;;;;;;20.47;47.52;100981.16;7282666;19;152753;-57
2022/05/31 12:43:59;;;;;;;;;;;;;;;20.44;47.28;100977.00;7283602;19;153227;-57
2022/05/31 12:46:31;;;;;;;;;;;;;;;20.49;47.42;100985.31;7284261;19;152626;-57
2022/05/31 12:49:00;;;;;;;;;;;;;;;20.51;47.61;100976.59;7281577;19;152928;-55
2022/05/31 12:51:29;;;;;;;;;;;;;;;20.49;47.39;100967.66;7281824;19;153264;-56
2022/05/31 12:53:59;;;;;;;;;;;;;;;20.45;47.33;100955.34;7286197;19;152166;-55
2022/05/31 12:56:32;;;;;;;;;;;;;;;20.39;47.37;100958.28;7284416;19;152552;-55
2022/05/31 12:58:59;;;;;;;;;;;;;;;20.39;47.49;100958.28;7284139;19;153272;-56
2022/05/31 13:01:26;;;;;;;;;;;;;;;20.40;47.44;100954.31;7288953;19;153493;-56
2022/05/31 13:03:56;;;;;;;;;;;;;;;20.42;47.73;100943.63;7279925;19;153613;-55
2022/05/31 13:06:34;;;;;;;;;;;;;;;20.38;47.32;100931.34;7280789;19;152120;-56
2022/05/31 13:09:10;;;;;;;;;;;;;;;20.40;47.67;100928.22;7282047;19;153815;-57
2022/05/31 13:20:09;;;;;;;;;;;;;;;20.38;47.57;100908.06;7280448;19;154365;-56